sensor_id;sensor_type;location;lat;lon;timestamp;P1;durP1;ratioP1;P2;durP2;ratioP2
29210;SDS011;16250;49.932;10.980;2023-09-18T00:00:48;6.28;;;5.68;;
29210;SDS011;16250;49.932;10.980;2023-09-18T00:03:21;7.43;;;6.22;;
29210;SDS011;16250;49.932;10.980;2023-09-18T00:05:49;6.85;;;6.15;;
29210;SDS011;16250;49.932;10.980;2023-09-18T00:08:15;6.60;;;6.00;;
29210;SDS011;16250;49.932;10.980;2023-09-18T00:10:41;6.13;;;5.63;;
29210;SDS011;16250;49.932;10.980;2023-09-18T00:13:08;6.40;;;5.80;;
29210;SDS011;16250;49.932;10.980;2023-09-18T00:15:33;6.93;;;5.80;;
29210;SDS011;16250;49.932;10.980;2023-09-18T00:17:59;6.30;;;5.65;;
29210;SDS011;16250;49.932;10.980;2023-09-18T00:20:24;6.63;;;6.03;;
29210;SDS011;16250;49.932;10.980;2023-09-18T00:22:55;7.13;;;5.80;;
29210;SDS011;16250;49.932;10.980;2023-09-18T00:25:21;7.13;;;6.03;;
29210;SDS011;16250;49.932;10.980;2023-09-18T00:27:47;6.65;;;6.05;;
29210;SDS011;16250;49.932;10.980;2023-09-18T00:30:13;6.00;;;5.45;;
29210;SDS011;16250;49.932;10.980;2023-09-18T00:32:38;6.78;;;6.18;;
29210;SDS011;16250;49.932;10.980;2023-09-18T00:35:04;6.88;;;6.25;;
29210;SDS011;16250;49.932;10.980;2023-09-18T00:37:29;8.32;;;5.82;;
29210;SDS011;16250;49.932;10.980;2023-09-18T00:39:55;6.13;;;5.30;;
29210;SDS011;16250;49.932;10.980;2023-09-18T00:42:20;6.53;;;5.55;;
29210;SDS011;16250;49.932;10.980;2023-09-18T00:44:47;6.65;;;6.03;;
29210;SDS011;16250;49.932;10.980;2023-09-18T00:47:13;7.15;;;5.82;;
29210;SDS011;16250;49.932;10.980;2023-09-18T00:49:40;6.32;;;5.68;;
29210;SDS011;16250;49.932;10.980;2023-09-18T00:52:07;6.63;;;5.60;;
29210;SDS011;16250;49.932;10.980;2023-09-18T00:54:34;5.68;;;5.10;;
29210;SDS011;16250;49.932;10.980;2023-09-18T00:57:00;5.35;;;4.85;;
29210;SDS011;16250;49.932;10.980;2023-09-18T00:59:28;5.95;;;4.97;;
29210;SDS011;16250;49.932;10.980;2023-09-18T01:01:53;5.43;;;4.93;;
29210;SDS011;16250;49.932;10.980;2023-09-18T01:04:19;4.90;;;4.40;;
29210;SDS011;16250;49.932;10.980;2023-09-18T01:06:44;4.57;;;4.18;;
29210;SDS011;16250;49.932;10.980;2023-09-18T01:09:10;6.82;;;4.93;;
29210;SDS011;16250;49.932;10.980;2023-09-18T01:11:44;4.82;;;4.43;;
29210;SDS011;16250;49.932;10.980;2023-09-18T01:14:20;5.03;;;4.32;;
29210;SDS011;16250;49.932;10.980;2023-09-18T01:16:53;5.35;;;4.47;;
29210;SDS011;16250;49.932;10.980;2023-09-18T01:19:34;6.05;;;4.70;;
29210;SDS011;16250;49.932;10.980;2023-09-18T01:22:03;5.25;;;4.72;;
29210;SDS011;16250;49.932;10.980;2023-09-18T01:24:30;4.75;;;4.25;;
29210;SDS011;16250;49.932;10.980;2023-09-18T01:26:56;4.78;;;4.28;;
29210;SDS011;16250;49.932;10.980;2023-09-18T01:29:22;4.30;;;3.95;;
29210;SDS011;16250;49.932;10.980;2023-09-18T01:31:47;5.60;;;4.60;;
29210;SDS011;16250;49.932;10.980;2023-09-18T01:34:14;4.65;;;4.25;;
29210;SDS011;16250;49.932;10.980;2023-09-18T01:36:41;5.00;;;4.18;;
29210;SDS011;16250;49.932;10.980;2023-09-18T01:39:07;4.93;;;4.50;;
29210;SDS011;16250;49.932;10.980;2023-09-18T01:41:35;5.05;;;4.57;;
29210;SDS011;16250;49.932;10.980;2023-09-18T01:44:01;5.50;;;5.00;;
29210;SDS011;16250;49.932;10.980;2023-09-18T01:46:27;5.63;;;4.55;;
29210;SDS011;16250;49.932;10.980;2023-09-18T01:48:53;4.95;;;4.45;;
29210;SDS011;16250;49.932;10.980;2023-09-18T01:51:18;5.75;;;4.75;;
29210;SDS011;16250;49.932;10.980;2023-09-18T01:53:44;4.80;;;4.20;;
29210;SDS011;16250;49.932;10.980;2023-09-18T01:56:09;5.80;;;4.75;;
29210;SDS011;16250;49.932;10.980;2023-09-18T01:58:34;4.78;;;4.38;;
29210;SDS011;16250;49.932;10.980;2023-09-18T02:01:00;5.28;;;4.30;;
29210;SDS011;16250;49.932;10.980;2023-09-18T02:03:26;6.20;;;5.15;;
29210;SDS011;16250;49.932;10.980;2023-09-18T02:05:51;5.30;;;4.80;;
29210;SDS011;16250;49.932;10.980;2023-09-18T02:08:17;4.25;;;3.90;;
29210;SDS011;16250;49.932;10.980;2023-09-18T02:10:42;5.15;;;4.68;;
29210;SDS011;16250;49.932;10.980;2023-09-18T02:13:08;5.00;;;4.50;;
29210;SDS011;16250;49.932;10.980;2023-09-18T02:15:35;5.20;;;4.80;;
29210;SDS011;16250;49.932;10.980;2023-09-18T02:18:02;5.43;;;4.93;;
29210;SDS011;16250;49.932;10.980;2023-09-18T02:20:27;5.10;;;4.70;;
29210;SDS011;16250;49.932;10.980;2023-09-18T02:22:53;5.25;;;4.75;;
29210;SDS011;16250;49.932;10.980;2023-09-18T02:25:18;5.80;;;4.47;;
29210;SDS011;16250;49.932;10.980;2023-09-18T02:27:43;6.97;;;4.85;;
29210;SDS011;16250;49.932;10.980;2023-09-18T02:30:10;5.53;;;5.03;;
29210;SDS011;16250;49.932;10.980;2023-09-18T02:32:36;5.57;;;5.03;;
29210;SDS011;16250;49.932;10.980;2023-09-18T02:35:02;5.43;;;4.90;;
29210;SDS011;16250;49.932;10.980;2023-09-18T02:37:29;5.43;;;4.93;;
29210;SDS011;16250;49.932;10.980;2023-09-18T02:39:54;5.40;;;4.90;;
29210;SDS011;16250;49.932;10.980;2023-09-18T02:42:19;5.30;;;4.70;;
29210;SDS011;16250;49.932;10.980;2023-09-18T02:44:45;6.07;;;5.47;;
29210;SDS011;16250;49.932;10.980;2023-09-18T02:47:11;5.75;;;5.15;;
29210;SDS011;16250;49.932;10.980;2023-09-18T02:49:36;5.88;;;5.38;;
29210;SDS011;16250;49.932;10.980;2023-09-18T02:52:02;6.03;;;5.18;;
29210;SDS011;16250;49.932;10.980;2023-09-18T02:54:28;5.78;;;5.22;;
29210;SDS011;16250;49.932;10.980;2023-09-18T02:56:53;6.00;;;4.93;;
29210;SDS011;16250;49.932;10.980;2023-09-18T02:59:19;5.82;;;5.30;;
29210;SDS011;16250;49.932;10.980;2023-09-18T03:01:44;9.45;;;5.75;;
29210;SDS011;16250;49.932;10.980;2023-09-18T03:04:10;5.72;;;5.22;;
29210;SDS011;16250;49.932;10.980;2023-09-18T03:06:37;5.72;;;5.22;;
29210;SDS011;16250;49.932;10.980;2023-09-18T03:09:04;6.22;;;5.63;;
29210;SDS011;16250;49.932;10.980;2023-09-18T03:11:30;8.13;;;5.45;;
29210;SDS011;16250;49.932;10.980;2023-09-18T03:13:55;6.07;;;5.45;;
29210;SDS011;16250;49.932;10.980;2023-09-18T03:16:21;6.15;;;5.55;;
29210;SDS011;16250;49.932;10.980;2023-09-18T03:18:46;6.40;;;5.80;;
29210;SDS011;16250;49.932;10.980;2023-09-18T03:21:12;6.10;;;5.50;;
29210;SDS011;16250;49.932;10.980;2023-09-18T03:23:37;7.97;;;5.70;;
29210;SDS011;16250;49.932;10.980;2023-09-18T03:26:03;6.28;;;5.68;;
29210;SDS011;16250;49.932;10.980;2023-09-18T03:28:28;6.68;;;6.07;;
29210;SDS011;16250;49.932;10.980;2023-09-18T03:30:54;7.47;;;5.75;;
29210;SDS011;16250;49.932;10.980;2023-09-18T03:33:22;7.75;;;6.38;;
29210;SDS011;16250;49.932;10.980;2023-09-18T03:35:48;6.30;;;5.70;;
29210;SDS011;16250;49.932;10.980;2023-09-18T03:38:17;6.60;;;6.00;;
29210;SDS011;16250;49.932;10.980;2023-09-18T03:40:43;6.50;;;5.75;;
29210;SDS011;16250;49.932;10.980;2023-09-18T03:43:09;6.70;;;6.10;;
29210;SDS011;16250;49.932;10.980;2023-09-18T03:45:35;6.13;;;5.53;;
29210;SDS011;16250;49.932;10.980;2023-09-18T03:48:01;6.65;;;5.93;;
29210;SDS011;16250;49.932;10.980;2023-09-18T03:50:26;7.20;;;6.30;;
29210;SDS011;16250;49.932;10.980;2023-09-18T03:52:52;9.00;;;6.30;;
29210;SDS011;16250;49.932;10.980;2023-09-18T03:55:17;6.93;;;6.30;;
29210;SDS011;16250;49.932;10.980;2023-09-18T03:57:43;7.25;;;6.50;;
29210;SDS011;16250;49.932;10.980;2023-09-18T04:00:11;7.45;;;6.32;;
29210;SDS011;16250;49.932;10.980;2023-09-18T04:02:40;9.43;;;6.57;;
29210;SDS011;16250;49.932;10.980;2023-09-18T04:05:05;6.82;;;6.13;;
29210;SDS011;16250;49.932;10.980;2023-09-18T04:07:32;6.97;;;6.30;;
29210;SDS011;16250;49.932;10.980;2023-09-18T04:09:59;7.05;;;6.35;;
29210;SDS011;16250;49.932;10.980;2023-09-18T04:12:25;7.18;;;6.47;;
29210;SDS011;16250;49.932;10.980;2023-09-18T04:14:50;7.88;;;6.60;;
29210;SDS011;16250;49.932;10.980;2023-09-18T04:17:16;8.27;;;6.47;;
29210;SDS011;16250;49.932;10.980;2023-09-18T04:19:41;7.35;;;6.75;;
29210;SDS011;16250;49.932;10.980;2023-09-18T04:22:08;9.45;;;6.63;;
29210;SDS011;16250;49.932;10.980;2023-09-18T04:24:33;6.30;;;5.70;;
29210;SDS011;16250;49.932;10.980;2023-09-18T04:26:59;8.63;;;6.63;;
29210;SDS011;16250;49.932;10.980;2023-09-18T04:29:24;7.20;;;6.50;;
29210;SDS011;16250;49.932;10.980;2023-09-18T04:31:50;7.10;;;6.40;;
29210;SDS011;16250;49.932;10.980;2023-09-18T04:34:15;6.53;;;5.93;;
29210;SDS011;16250;49.932;10.980;2023-09-18T04:36:41;7.93;;;6.97;;
29210;SDS011;16250;49.932;10.980;2023-09-18T04:39:08;9.32;;;7.25;;
29210;SDS011;16250;49.932;10.980;2023-09-18T04:41:34;8.40;;;7.50;;
29210;SDS011;16250;49.932;10.980;2023-09-18T04:44:02;9.20;;;8.30;;
29210;SDS011;16250;49.932;10.980;2023-09-18T04:46:30;9.73;;;7.28;;
29210;SDS011;16250;49.932;10.980;2023-09-18T04:48:56;10.27;;;7.30;;
29210;SDS011;16250;49.932;10.980;2023-09-18T04:51:21;8.85;;;7.50;;
29210;SDS011;16250;49.932;10.980;2023-09-18T04:53:47;8.80;;;7.82;;
29210;SDS011;16250;49.932;10.980;2023-09-18T04:56:12;12.10;;;8.27;;
29210;SDS011;16250;49.932;10.980;2023-09-18T04:58:38;10.38;;;8.02;;
29210;SDS011;16250;49.932;10.980;2023-09-18T05:01:04;11.80;;;8.43;;
29210;SDS011;16250;49.932;10.980;2023-09-18T05:03:32;10.85;;;8.23;;
29210;SDS011;16250;49.932;10.980;2023-09-18T05:05:59;9.40;;;8.15;;
29210;SDS011;16250;49.932;10.980;2023-09-18T05:08:24;9.23;;;8.25;;
29210;SDS011;16250;49.932;10.980;2023-09-18T05:10:50;9.20;;;7.95;;
29210;SDS011;16250;49.932;10.980;2023-09-18T05:13:15;9.07;;;7.85;;
29210;SDS011;16250;49.932;10.980;2023-09-18T05:15:41;8.35;;;7.22;;
29210;SDS011;16250;49.932;10.980;2023-09-18T05:18:06;9.13;;;8.23;;
29210;SDS011;16250;49.932;10.980;2023-09-18T05:20:31;9.40;;;7.72;;
29210;SDS011;16250;49.932;10.980;2023-09-18T05:22:57;8.80;;;7.90;;
29210;SDS011;16250;49.932;10.980;2023-09-18T05:25:24;9.65;;;8.65;;
29210;SDS011;16250;49.932;10.980;2023-09-18T05:27:51;10.38;;;8.63;;
29210;SDS011;16250;49.932;10.980;2023-09-18T05:30:23;9.88;;;8.38;;
29210;SDS011;16250;49.932;10.980;2023-09-18T05:32:50;9.20;;;8.30;;
29210;SDS011;16250;49.932;10.980;2023-09-18T05:35:15;10.63;;;8.32;;
29210;SDS011;16250;49.932;10.980;2023-09-18T05:37:42;9.40;;;7.97;;
29210;SDS011;16250;49.932;10.980;2023-09-18T05:40:09;12.00;;;8.25;;
29210;SDS011;16250;49.932;10.980;2023-09-18T05:42:39;8.65;;;7.75;;
29210;SDS011;16250;49.932;10.980;2023-09-18T05:45:09;10.75;;;7.97;;
29210;SDS011;16250;49.932;10.980;2023-09-18T05:47:35;10.45;;;8.10;;
29210;SDS011;16250;49.932;10.980;2023-09-18T05:50:09;9.75;;;7.57;;
29210;SDS011;16250;49.932;10.980;2023-09-18T05:52:40;10.27;;;8.00;;
29210;SDS011;16250;49.932;10.980;2023-09-18T05:55:05;9.52;;;8.48;;
29210;SDS011;16250;49.932;10.980;2023-09-18T05:57:32;9.30;;;8.40;;
29210;SDS011;16250;49.932;10.980;2023-09-18T05:59:57;10.48;;;8.00;;
29210;SDS011;16250;49.932;10.980;2023-09-18T06:02:23;9.93;;;8.07;;
29210;SDS011;16250;49.932;10.980;2023-09-18T06:04:50;8.63;;;7.22;;
29210;SDS011;16250;49.932;10.980;2023-09-18T06:07:20;8.25;;;7.43;;
29210;SDS011;16250;49.932;10.980;2023-09-18T06:09:47;8.85;;;7.68;;
29210;SDS011;16250;49.932;10.980;2023-09-18T06:12:13;9.32;;;7.47;;
29210;SDS011;16250;49.932;10.980;2023-09-18T06:14:39;11.02;;;7.15;;
29210;SDS011;16250;49.932;10.980;2023-09-18T06:17:04;18.17;;;7.65;;
29210;SDS011;16250;49.932;10.980;2023-09-18T06:19:30;9.90;;;7.30;;
29210;SDS011;16250;49.932;10.980;2023-09-18T06:21:56;8.70;;;7.10;;
29210;SDS011;16250;49.932;10.980;2023-09-18T06:24:21;8.18;;;7.40;;
29210;SDS011;16250;49.932;10.980;2023-09-18T06:26:47;9.45;;;8.07;;
29210;SDS011;16250;49.932;10.980;2023-09-18T06:29:12;9.10;;;7.45;;
29210;SDS011;16250;49.932;10.980;2023-09-18T06:31:38;9.63;;;8.10;;
29210;SDS011;16250;49.932;10.980;2023-09-18T06:34:03;8.75;;;7.85;;
29210;SDS011;16250;49.932;10.980;2023-09-18T06:36:29;9.32;;;7.97;;
29210;SDS011;16250;49.932;10.980;2023-09-18T06:38:55;9.48;;;8.25;;
29210;SDS011;16250;49.932;10.980;2023-09-18T06:41:20;11.75;;;8.30;;
29210;SDS011;16250;49.932;10.980;2023-09-18T06:43:45;9.25;;;8.35;;
29210;SDS011;16250;49.932;10.980;2023-09-18T06:46:11;14.73;;;8.32;;
29210;SDS011;16250;49.932;10.980;2023-09-18T06:48:36;9.73;;;8.00;;
29210;SDS011;16250;49.932;10.980;2023-09-18T06:51:02;10.20;;;7.68;;
29210;SDS011;16250;49.932;10.980;2023-09-18T06:53:27;8.57;;;7.53;;
29210;SDS011;16250;49.932;10.980;2023-09-18T06:55:53;8.82;;;7.93;;
29210;SDS011;16250;49.932;10.980;2023-09-18T06:58:18;9.18;;;7.60;;
29210;SDS011;16250;49.932;10.980;2023-09-18T07:00:44;7.70;;;6.88;;
29210;SDS011;16250;49.932;10.980;2023-09-18T07:03:09;8.93;;;7.07;;
29210;SDS011;16250;49.932;10.980;2023-09-18T07:05:36;8.57;;;7.22;;
29210;SDS011;16250;49.932;10.980;2023-09-18T07:08:02;7.70;;;6.90;;
29210;SDS011;16250;49.932;10.980;2023-09-18T07:10:29;8.85;;;7.05;;
29210;SDS011;16250;49.932;10.980;2023-09-18T07:12:55;7.75;;;6.82;;
29210;SDS011;16250;49.932;10.980;2023-09-18T07:15:20;7.85;;;6.28;;
29210;SDS011;16250;49.932;10.980;2023-09-18T07:17:45;10.00;;;7.47;;
29210;SDS011;16250;49.932;10.980;2023-09-18T09:17:05;8.80;;;6.47;;
29210;SDS011;16250;49.932;10.980;2023-09-18T09:19:34;9.90;;;6.22;;
29210;SDS011;16250;49.932;10.980;2023-09-18T09:22:03;8.40;;;5.38;;
29210;SDS011;16250;49.932;10.980;2023-09-18T09:24:39;10.25;;;5.65;;
29210;SDS011;16250;49.932;10.980;2023-09-18T09:27:05;12.38;;;5.50;;
29210;SDS011;16250;49.932;10.980;2023-09-18T09:29:31;9.93;;;4.93;;
29210;SDS011;16250;49.932;10.980;2023-09-18T09:32:00;8.77;;;5.10;;
29210;SDS011;16250;49.932;10.980;2023-09-18T09:34:37;8.93;;;5.78;;
29210;SDS011;16250;49.932;10.980;2023-09-18T09:37:02;7.47;;;4.95;;
29210;SDS011;16250;49.932;10.980;2023-09-18T09:39:29;8.85;;;4.53;;
29210;SDS011;16250;49.932;10.980;2023-09-18T09:41:55;9.80;;;4.78;;
29210;SDS011;16250;49.932;10.980;2023-09-18T09:44:30;8.43;;;4.38;;
29210;SDS011;16250;49.932;10.980;2023-09-18T09:46:56;10.90;;;4.95;;
29210;SDS011;16250;49.932;10.980;2023-09-18T09:49:24;7.03;;;4.38;;
29210;SDS011;16250;49.932;10.980;2023-09-18T09:51:52;10.02;;;4.28;;
29210;SDS011;16250;49.932;10.980;2023-09-18T09:54:40;7.05;;;4.00;;
29210;SDS011;16250;49.932;10.980;2023-09-18T09:57:06;9.13;;;4.38;;
29210;SDS011;16250;49.932;10.980;2023-09-18T09:59:31;8.15;;;3.92;;
29210;SDS011;16250;49.932;10.980;2023-09-18T10:02:00;11.38;;;3.17;;
29210;SDS011;16250;49.932;10.980;2023-09-18T10:04:25;5.45;;;3.20;;
29210;SDS011;16250;49.932;10.980;2023-09-18T10:06:54;12.65;;;3.70;;
29210;SDS011;16250;49.932;10.980;2023-09-18T10:09:22;8.23;;;3.70;;
29210;SDS011;16250;49.932;10.980;2023-09-18T10:11:51;6.22;;;3.47;;
29210;SDS011;16250;49.932;10.980;2023-09-18T10:14:18;11.32;;;3.50;;
29210;SDS011;16250;49.932;10.980;2023-09-18T10:16:48;7.45;;;3.22;;
29210;SDS011;16250;49.932;10.980;2023-09-18T10:19:27;6.53;;;3.00;;
29210;SDS011;16250;49.932;10.980;2023-09-18T10:22:12;7.80;;;2.95;;
29210;SDS011;16250;49.932;10.980;2023-09-18T10:24:46;5.82;;;3.05;;
29210;SDS011;16250;49.932;10.980;2023-09-18T10:27:12;6.53;;;2.67;;
29210;SDS011;16250;49.932;10.980;2023-09-18T10:29:38;5.97;;;2.90;;
29210;SDS011;16250;49.932;10.980;2023-09-18T10:32:06;6.57;;;2.90;;
29210;SDS011;16250;49.932;10.980;2023-09-18T10:34:35;5.50;;;2.72;;
29210;SDS011;16250;49.932;10.980;2023-09-18T10:37:02;5.30;;;2.83;;
29210;SDS011;16250;49.932;10.980;2023-09-18T10:39:31;6.30;;;3.03;;
29210;SDS011;16250;49.932;10.980;2023-09-18T10:42:00;6.65;;;2.60;;
29210;SDS011;16250;49.932;10.980;2023-09-18T10:44:27;5.63;;;2.50;;
29210;SDS011;16250;49.932;10.980;2023-09-18T10:46:53;5.82;;;2.45;;
29210;SDS011;16250;49.932;10.980;2023-09-18T10:49:19;3.70;;;2.08;;
29210;SDS011;16250;49.932;10.980;2023-09-18T10:51:45;7.05;;;2.40;;
29210;SDS011;16250;49.932;10.980;2023-09-18T10:54:15;6.20;;;2.00;;
29210;SDS011;16250;49.932;10.980;2023-09-18T10:56:42;3.60;;;1.73;;
29210;SDS011;16250;49.932;10.980;2023-09-18T10:59:07;9.10;;;1.90;;
29210;SDS011;16250;49.932;10.980;2023-09-18T11:01:34;4.00;;;1.58;;
29210;SDS011;16250;49.932;10.980;2023-09-18T11:04:02;5.18;;;1.80;;
29210;SDS011;16250;49.932;10.980;2023-09-18T11:06:29;6.13;;;2.15;;
29210;SDS011;16250;49.932;10.980;2023-09-18T11:09:01;7.28;;;2.00;;
29210;SDS011;16250;49.932;10.980;2023-09-18T11:11:29;9.05;;;1.95;;
29210;SDS011;16250;49.932;10.980;2023-09-18T11:13:57;7.68;;;1.90;;
29210;SDS011;16250;49.932;10.980;2023-09-18T11:18:52;5.10;;;1.70;;
29210;SDS011;16250;49.932;10.980;2023-09-18T11:21:18;5.82;;;1.77;;
29210;SDS011;16250;49.932;10.980;2023-09-18T11:23:51;6.05;;;1.88;;
29210;SDS011;16250;49.932;10.980;2023-09-18T11:26:32;3.63;;;1.48;;
29210;SDS011;16250;49.932;10.980;2023-09-18T11:28:59;5.70;;;1.40;;
29210;SDS011;16250;49.932;10.980;2023-09-18T11:31:48;3.63;;;1.33;;
29210;SDS011;16250;49.932;10.980;2023-09-18T11:36:51;5.20;;;1.92;;
29210;SDS011;16250;49.932;10.980;2023-09-18T11:39:33;3.58;;;1.48;;
29210;SDS011;16250;49.932;10.980;2023-09-18T11:44:35;5.85;;;1.70;;
29210;SDS011;16250;49.932;10.980;2023-09-18T11:47:06;4.72;;;1.83;;
29210;SDS011;16250;49.932;10.980;2023-09-18T11:49:32;7.35;;;1.90;;
29210;SDS011;16250;49.932;10.980;2023-09-18T11:51:58;5.60;;;2.20;;
29210;SDS011;16250;49.932;10.980;2023-09-18T11:54:24;5.47;;;1.67;;
29210;SDS011;16250;49.932;10.980;2023-09-18T11:56:50;5.85;;;1.75;;
29210;SDS011;16250;49.932;10.980;2023-09-18T11:59:15;5.30;;;2.00;;
29210;SDS011;16250;49.932;10.980;2023-09-18T12:01:42;6.55;;;1.80;;
29210;SDS011;16250;49.932;10.980;2023-09-18T12:04:11;5.72;;;2.20;;
29210;SDS011;16250;49.932;10.980;2023-09-18T12:06:40;9.77;;;2.30;;
29210;SDS011;16250;49.932;10.980;2023-09-18T12:09:07;7.60;;;2.40;;
29210;SDS011;16250;49.932;10.980;2023-09-18T12:11:34;5.28;;;2.13;;
29210;SDS011;16250;49.932;10.980;2023-09-18T12:14:04;7.20;;;2.40;;
29210;SDS011;16250;49.932;10.980;2023-09-18T12:16:30;5.28;;;2.25;;
29210;SDS011;16250;49.932;10.980;2023-09-18T12:18:55;8.45;;;2.63;;
29210;SDS011;16250;49.932;10.980;2023-09-18T12:21:22;7.47;;;2.38;;
29210;SDS011;16250;49.932;10.980;2023-09-18T12:23:47;7.13;;;2.65;;
29210;SDS011;16250;49.932;10.980;2023-09-18T12:26:14;5.80;;;2.80;;
29210;SDS011;16250;49.932;10.980;2023-09-18T12:28:41;7.30;;;3.10;;
29210;SDS011;16250;49.932;10.980;2023-09-18T12:31:11;10.02;;;2.50;;
29210;SDS011;16250;49.932;10.980;2023-09-18T12:33:37;5.53;;;2.65;;
29210;SDS011;16250;49.932;10.980;2023-09-18T12:36:04;6.25;;;2.40;;
29210;SDS011;16250;49.932;10.980;2023-09-18T12:38:30;4.47;;;2.53;;
29210;SDS011;16250;49.932;10.980;2023-09-18T12:40:56;9.35;;;2.58;;
29210;SDS011;16250;49.932;10.980;2023-09-18T12:43:25;6.38;;;2.63;;
29210;SDS011;16250;49.932;10.980;2023-09-18T12:45:54;7.93;;;3.45;;
29210;SDS011;16250;49.932;10.980;2023-09-18T12:48:20;6.25;;;3.67;;
29210;SDS011;16250;49.932;10.980;2023-09-18T12:50:46;6.03;;;2.70;;
29210;SDS011;16250;49.932;10.980;2023-09-18T12:53:21;6.65;;;2.97;;
29210;SDS011;16250;49.932;10.980;2023-09-18T12:55:47;7.20;;;2.83;;
29210;SDS011;16250;49.932;10.980;2023-09-18T12:58:13;6.65;;;3.08;;
29210;SDS011;16250;49.932;10.980;2023-09-18T13:00:44;6.18;;;2.60;;
29210;SDS011;16250;49.932;10.980;2023-09-18T13:05:40;6.57;;;2.90;;
29210;SDS011;16250;49.932;10.980;2023-09-18T13:08:05;4.68;;;3.05;;
29210;SDS011;16250;49.932;10.980;2023-09-18T13:13:28;7.15;;;2.60;;
29210;SDS011;16250;49.932;10.980;2023-09-18T13:15:56;6.28;;;2.65;;
29210;SDS011;16250;49.932;10.980;2023-09-18T13:18:24;3.45;;;2.13;;
29210;SDS011;16250;49.932;10.980;2023-09-18T13:20:50;6.32;;;2.55;;
29210;SDS011;16250;49.932;10.980;2023-09-18T13:23:16;5.82;;;2.75;;
29210;SDS011;16250;49.932;10.980;2023-09-18T13:25:42;6.13;;;2.28;;
29210;SDS011;16250;49.932;10.980;2023-09-18T13:28:10;8.48;;;2.20;;
29210;SDS011;16250;49.932;10.980;2023-09-18T13:30:36;6.50;;;2.50;;
29210;SDS011;16250;49.932;10.980;2023-09-18T13:33:07;4.45;;;2.45;;
29210;SDS011;16250;49.932;10.980;2023-09-18T13:35:33;5.05;;;2.40;;
29210;SDS011;16250;49.932;10.980;2023-09-18T13:38:06;4.43;;;2.83;;
29210;SDS011;16250;49.932;10.980;2023-09-18T13:40:33;5.10;;;2.65;;
29210;SDS011;16250;49.932;10.980;2023-09-18T13:43:01;4.65;;;2.88;;
29210;SDS011;16250;49.932;10.980;2023-09-18T13:45:26;3.72;;;2.92;;
29210;SDS011;16250;49.932;10.980;2023-09-18T13:47:52;5.82;;;2.55;;
29210;SDS011;16250;49.932;10.980;2023-09-18T13:50:17;8.27;;;2.90;;
29210;SDS011;16250;49.932;10.980;2023-09-18T13:52:42;3.80;;;2.53;;
29210;SDS011;16250;49.932;10.980;2023-09-18T13:55:08;5.40;;;2.72;;
29210;SDS011;16250;49.932;10.980;2023-09-18T13:57:35;5.38;;;2.95;;
29210;SDS011;16250;49.932;10.980;2023-09-18T14:00:00;4.72;;;3.00;;
29210;SDS011;16250;49.932;10.980;2023-09-18T14:02:38;8.23;;;3.60;;
29210;SDS011;16250;49.932;10.980;2023-09-18T14:05:04;3.95;;;2.80;;
29210;SDS011;16250;49.932;10.980;2023-09-18T14:07:30;5.97;;;2.75;;
29210;SDS011;16250;49.932;10.980;2023-09-18T14:09:56;7.75;;;3.22;;
29210;SDS011;16250;49.932;10.980;2023-09-18T14:12:22;6.00;;;2.85;;
29210;SDS011;16250;49.932;10.980;2023-09-18T14:14:47;5.20;;;3.00;;
29210;SDS011;16250;49.932;10.980;2023-09-18T14:17:12;6.63;;;3.20;;
29210;SDS011;16250;49.932;10.980;2023-09-18T14:19:38;6.53;;;3.42;;
29210;SDS011;16250;49.932;10.980;2023-09-18T14:22:07;7.05;;;3.30;;
29210;SDS011;16250;49.932;10.980;2023-09-18T14:24:33;8.52;;;3.50;;
29210;SDS011;16250;49.932;10.980;2023-09-18T14:27:03;8.48;;;3.40;;
29210;SDS011;16250;49.932;10.980;2023-09-18T14:29:29;7.85;;;3.20;;
29210;SDS011;16250;49.932;10.980;2023-09-18T14:31:58;7.10;;;2.92;;
29210;SDS011;16250;49.932;10.980;2023-09-18T14:34:24;4.68;;;2.80;;
29210;SDS011;16250;49.932;10.980;2023-09-18T14:36:49;7.22;;;3.20;;
29210;SDS011;16250;49.932;10.980;2023-09-18T14:39:15;5.40;;;2.90;;
29210;SDS011;16250;49.932;10.980;2023-09-18T14:41:40;5.88;;;2.80;;
29210;SDS011;16250;49.932;10.980;2023-09-18T14:44:07;4.72;;;2.53;;
29210;SDS011;16250;49.932;10.980;2023-09-18T14:46:34;6.03;;;2.75;;
29210;SDS011;16250;49.932;10.980;2023-09-18T14:49:06;6.50;;;2.45;;
29210;SDS011;16250;49.932;10.980;2023-09-18T14:51:35;6.80;;;2.70;;
29210;SDS011;16250;49.932;10.980;2023-09-18T14:54:00;5.07;;;2.30;;
29210;SDS011;16250;49.932;10.980;2023-09-18T14:56:26;4.78;;;2.40;;
29210;SDS011;16250;49.932;10.980;2023-09-18T14:58:52;7.78;;;2.47;;
29210;SDS011;16250;49.932;10.980;2023-09-18T15:01:18;5.80;;;2.30;;
29210;SDS011;16250;49.932;10.980;2023-09-18T15:03:44;5.28;;;2.40;;
29210;SDS011;16250;49.932;10.980;2023-09-18T15:06:09;3.80;;;2.28;;
29210;SDS011;16250;49.932;10.980;2023-09-18T15:08:35;5.57;;;2.42;;
29210;SDS011;16250;49.932;10.980;2023-09-18T15:11:00;4.45;;;2.50;;
29210;SDS011;16250;49.932;10.980;2023-09-18T15:13:26;5.57;;;2.50;;
29210;SDS011;16250;49.932;10.980;2023-09-18T15:15:51;6.18;;;2.45;;
29210;SDS011;16250;49.932;10.980;2023-09-18T15:18:16;5.72;;;2.60;;
29210;SDS011;16250;49.932;10.980;2023-09-18T15:20:42;6.32;;;2.70;;
29210;SDS011;16250;49.932;10.980;2023-09-18T15:23:07;4.90;;;2.85;;
29210;SDS011;16250;49.932;10.980;2023-09-18T15:25:33;5.90;;;2.40;;
29210;SDS011;16250;49.932;10.980;2023-09-18T15:28:06;4.65;;;2.58;;
29210;SDS011;16250;49.932;10.980;2023-09-18T15:30:32;6.03;;;2.47;;
29210;SDS011;16250;49.932;10.980;2023-09-18T15:32:57;3.67;;;2.30;;
29210;SDS011;16250;49.932;10.980;2023-09-18T15:35:22;5.35;;;2.40;;
29210;SDS011;16250;49.932;10.980;2023-09-18T15:37:52;6.10;;;2.80;;
29210;SDS011;16250;49.932;10.980;2023-09-18T15:40:18;3.72;;;2.47;;
29210;SDS011;16250;49.932;10.980;2023-09-18T15:42:46;4.53;;;2.20;;
29210;SDS011;16250;49.932;10.980;2023-09-18T15:45:12;5.38;;;2.05;;
29210;SDS011;16250;49.932;10.980;2023-09-18T15:47:38;3.70;;;2.13;;
29210;SDS011;16250;49.932;10.980;2023-09-18T15:50:04;6.50;;;2.30;;
29210;SDS011;16250;49.932;10.980;2023-09-18T15:52:33;6.85;;;2.20;;
29210;SDS011;16250;49.932;10.980;2023-09-18T15:54:59;6.85;;;1.80;;
29210;SDS011;16250;49.932;10.980;2023-09-18T15:57:25;3.63;;;1.50;;
29210;SDS011;16250;49.932;10.980;2023-09-18T15:59:51;4.32;;;1.80;;
29210;SDS011;16250;49.932;10.980;2023-09-18T16:02:17;4.47;;;1.90;;
29210;SDS011;16250;49.932;10.980;2023-09-18T16:04:43;3.72;;;1.92;;
29210;SDS011;16250;49.932;10.980;2023-09-18T16:07:08;3.28;;;1.58;;
29210;SDS011;16250;49.932;10.980;2023-09-18T16:09:38;2.67;;;1.63;;
29210;SDS011;16250;49.932;10.980;2023-09-18T16:12:04;6.97;;;1.65;;
29210;SDS011;16250;49.932;10.980;2023-09-18T16:14:31;2.42;;;1.70;;
29210;SDS011;16250;49.932;10.980;2023-09-18T16:16:57;6.22;;;1.75;;
29210;SDS011;16250;49.932;10.980;2023-09-18T16:19:22;3.83;;;1.60;;
29210;SDS011;16250;49.932;10.980;2023-09-18T16:21:48;5.78;;;1.83;;
29210;SDS011;16250;49.932;10.980;2023-09-18T16:24:14;4.13;;;1.70;;
29210;SDS011;16250;49.932;10.980;2023-09-18T16:26:40;3.25;;;1.58;;
29210;SDS011;16250;49.932;10.980;2023-09-18T16:29:06;2.88;;;1.55;;
29210;SDS011;16250;49.932;10.980;2023-09-18T16:31:31;4.88;;;1.52;;
29210;SDS011;16250;49.932;10.980;2023-09-18T16:33:58;4.55;;;1.83;;
29210;SDS011;16250;49.932;10.980;2023-09-18T16:36:23;3.90;;;1.92;;
29210;SDS011;16250;49.932;10.980;2023-09-18T16:38:51;3.17;;;1.80;;
29210;SDS011;16250;49.932;10.980;2023-09-18T16:41:16;3.50;;;1.80;;